sensor_id;sensor_type;location;lat;lon;timestamp;pressure;altitude;pressure_sealevel;temperature;humidity
62122;BME280;48108;47.532;19.084;2022-10-18T03:54:17;101812.72;;;8.44;100.00
62122;BME280;48108;47.532;19.084;2022-10-18T03:57:20;101813.13;;;8.39;100.00
62122;BME280;48108;47.532;19.084;2022-10-18T04:00:23;101815.56;;;8.31;100.00
62122;BME280;48108;47.532;19.084;2022-10-18T04:03:26;101825.09;;;8.24;100.00
62122;BME280;48108;47.532;19.084;2022-10-18T04:06:28;101809.25;;;8.21;100.00
62122;BME280;48108;47.532;19.084;2022-10-18T04:09:31;101801.09;;;8.23;100.00
62122;BME280;48108;47.532;19.084;2022-10-18T04:12:33;101807.81;;;8.17;100.00
62122;BME280;48108;47.532;19.084;2022-10-18T04:15:36;101807.22;;;8.13;100.00
62122;BME280;48108;47.532;19.084;2022-10-18T04:18:39;101810.25;;;8.09;100.00
62122;BME280;48108;47.532;19.084;2022-10-18T04:21:41;101800.03;;;8.03;100.00
62122;BME280;48108;47.532;19.084;2022-10-18T04:24:44;101799.97;;;7.93;100.00
62122;BME280;48108;47.532;19.084;2022-10-18T04:27:47;101793.97;;;7.89;100.00
62122;BME280;48108;47.532;19.084;2022-10-18T04:30:52;101796.16;;;7.95;100.00
62122;BME280;48108;47.532;19.084;2022-10-18T04:33:55;101796.28;;;7.94;100.00
62122;BME280;48108;47.532;19.084;2022-10-18T04:36:58;101792.75;;;7.93;100.00
62122;BME280;48108;47.532;19.084;2022-10-18T04:40:01;101794.47;;;7.94;100.00
62122;BME280;48108;47.532;19.084;2022-10-18T04:43:03;101791.78;;;7.94;100.00
62122;BME280;48108;47.532;19.084;2022-10-18T04:46:06;101795.53;;;8.03;100.00
62122;BME280;48108;47.532;19.084;2022-10-18T04:49:08;101788.56;;;8.12;100.00
62122;BME280;48108;47.532;19.084;2022-10-18T04:52:11;101783.06;;;8.13;100.00
62122;BME280;48108;47.532;19.084;2022-10-18T04:55:14;101779.50;;;8.13;100.00
62122;BME280;48108;47.532;19.084;2022-10-18T04:58:18;101771.63;;;8.11;100.00
62122;BME280;48108;47.532;19.084;2022-10-18T05:01:21;101783.44;;;8.09;100.00
62122;BME280;48108;47.532;19.084;2022-10-18T05:04:23;101767.88;;;8.03;100.00
62122;BME280;48108;47.532;19.084;2022-10-18T05:07:26;101778.34;;;8.06;100.00
62122;BME280;48108;47.532;19.084;2022-10-18T05:10:31;101776.03;;;8.01;100.00
62122;BME280;48108;47.532;19.084;2022-10-18T05:13:33;101779.56;;;8.02;100.00
62122;BME280;48108;47.532;19.084;2022-10-18T05:16:36;101784.22;;;8.00;100.00
62122;BME280;48108;47.532;19.084;2022-10-18T05:19:39;101774.31;;;8.00;100.00
62122;BME280;48108;47.532;19.084;2022-10-18T05:22:42;101782.97;;;8.04;100.00
62122;BME280;48108;47.532;19.084;2022-10-18T05:25:44;101785.41;;;7.95;100.00
62122;BME280;48108;47.532;19.084;2022-10-18T05:28:48;101780.69;;;7.99;100.00
62122;BME280;48108;47.532;19.084;2022-10-18T05:31:51;101786.37;;;8.06;100.00
62122;BME280;48108;47.532;19.084;2022-10-18T05:34:54;101790.50;;;8.10;100.00
62122;BME280;48108;47.532;19.084;2022-10-18T05:37:57;101788.22;;;8.05;100.00
62122;BME280;48108;47.532;19.084;2022-10-18T05:41:03;101789.56;;;8.00;100.00
62122;BME280;48108;47.532;19.084;2022-10-18T05:44:05;101787.81;;;8.10;100.00
62122;BME280;48108;47.532;19.084;2022-10-18T05:47:08;101787.66;;;8.23;100.00
62122;BME280;48108;47.532;19.084;2022-10-18T05:50:11;101785.25;;;8.20;100.00
62122;BME280;48108;47.532;19.084;2022-10-18T05:53:14;101785.69;;;8.25;100.00
62122;BME280;48108;47.532;19.084;2022-10-18T05:56:38;101780.94;;;8.28;100.00
62122;BME280;48108;47.532;19.084;2022-10-18T05:59:45;101787.00;;;8.30;100.00
62122;BME280;48108;47.532;19.084;2022-10-18T06:02:48;101786.63;;;8.46;100.00
62122;BME280;48108;47.532;19.084;2022-10-18T06:05:51;101788.38;;;8.57;100.00
62122;BME280;48108;47.532;19.084;2022-10-18T06:08:53;101792.47;;;8.72;100.00
62122;BME280;48108;47.532;19.084;2022-10-18T06:11:56;101791.34;;;8.96;100.00
62122;BME280;48108;47.532;19.084;2022-10-18T06:14:59;101790.72;;;9.13;100.00
62122;BME280;48108;47.532;19.084;2022-10-18T06:18:02;101786.53;;;9.30;100.00
62122;BME280;48108;47.532;19.084;2022-10-18T06:21:04;101789.47;;;9.48;100.00
62122;BME280;48108;47.532;19.084;2022-10-18T06:24:07;101794.88;;;9.67;100.00
62122;BME280;48108;47.532;19.084;2022-10-18T06:27:10;101803.84;;;9.77;100.00
62122;BME280;48108;47.532;19.084;2022-10-18T06:30:13;101804.59;;;9.89;100.00
62122;BME280;48108;47.532;19.084;2022-10-18T06:33:16;101808.12;;;9.99;100.00
62122;BME280;48108;47.532;19.084;2022-10-18T06:36:20;101806.16;;;10.11;100.00
62122;BME280;48108;47.532;19.084;2022-10-18T06:39:25;101811.41;;;10.22;100.00
62122;BME280;48108;47.532;19.084;2022-10-18T06:42:30;101814.16;;;10.32;100.00
62122;BME280;48108;47.532;19.084;2022-10-18T06:45:33;101803.41;;;10.42;100.00
62122;BME280;48108;47.532;19.084;2022-10-18T06:48:37;101804.22;;;10.52;100.00
62122;BME280;48108;47.532;19.084;2022-10-18T06:51:43;101804.53;;;10.69;100.00
62122;BME280;48108;47.532;19.084;2022-10-18T06:54:46;101803.34;;;10.81;100.00
62122;BME280;48108;47.532;19.084;2022-10-18T06:57:48;101806.31;;;10.97;100.00
62122;BME280;48108;47.532;19.084;2022-10-18T07:00:51;101814.06;;;11.10;100.00
62122;BME280;48108;47.532;19.084;2022-10-18T07:03:54;101803.00;;;11.13;100.00
62122;BME280;48108;47.532;19.084;2022-10-18T07:06:57;101809.22;;;11.23;100.00
62122;BME280;48108;47.532;19.084;2022-10-18T07:09:59;101810.38;;;11.48;100.00
62122;BME280;48108;47.532;19.084;2022-10-18T07:13:02;101808.47;;;11.68;100.00
62122;BME280;48108;47.532;19.084;2022-10-18T07:16:25;101809.41;;;11.77;100.00
62122;BME280;48108;47.532;19.084;2022-10-18T07:19:28;101798.69;;;11.95;100.00
62122;BME280;48108;47.532;19.084;2022-10-18T07:22:30;101793.78;;;12.08;100.00
62122;BME280;48108;47.532;19.084;2022-10-18T07:25:34;101795.47;;;12.27;99.72
62122;BME280;48108;47.532;19.084;2022-10-18T07:28:36;101789.03;;;12.46;96.09
62122;BME280;48108;47.532;19.084;2022-10-18T07:31:39;101795.28;;;12.64;94.32
62122;BME280;48108;47.532;19.084;2022-10-18T07:34:42;101792.03;;;12.79;94.00
62122;BME280;48108;47.532;19.084;2022-10-18T07:37:45;101786.91;;;12.93;93.33
62122;BME280;48108;47.532;19.084;2022-10-18T07:40:47;101780.22;;;13.06;91.65
62122;BME280;48108;47.532;19.084;2022-10-18T07:43:51;101779.06;;;13.34;89.92
62122;BME280;48108;47.532;19.084;2022-10-18T07:46:54;101783.63;;;13.34;87.29
62122;BME280;48108;47.532;19.084;2022-10-18T07:50:01;101775.03;;;13.47;86.51
62122;BME280;48108;47.532;19.084;2022-10-18T07:53:03;101776.81;;;13.64;83.38
62122;BME280;48108;47.532;19.084;2022-10-18T07:56:10;101772.94;;;13.67;83.90
62122;BME280;48108;47.532;19.084;2022-10-18T07:59:17;101777.38;;;13.84;81.46
62122;BME280;48108;47.532;19.084;2022-10-18T08:02:19;101764.22;;;14.05;80.60
62122;BME280;48108;47.532;19.084;2022-10-18T08:05:23;101764.59;;;14.19;79.07
62122;BME280;48108;47.532;19.084;2022-10-18T08:08:26;101753.75;;;14.27;79.25
62122;BME280;48108;47.532;19.084;2022-10-18T08:11:29;101758.34;;;14.43;76.35
62122;BME280;48108;47.532;19.084;2022-10-18T08:14:31;101753.91;;;14.50;76.42
62122;BME280;48108;47.532;19.084;2022-10-18T08:17:34;101750.41;;;14.66;73.50
62122;BME280;48108;47.532;19.084;2022-10-18T08:20:42;101755.78;;;14.90;71.67
62122;BME280;48108;47.532;19.084;2022-10-18T08:23:46;101743.38;;;14.96;70.08
62122;BME280;48108;47.532;19.084;2022-10-18T08:26:48;101742.31;;;15.13;70.03
62122;BME280;48108;47.532;19.084;2022-10-18T08:29:52;101738.91;;;15.19;68.87
62122;BME280;48108;47.532;19.084;2022-10-18T08:32:54;101733.59;;;15.34;69.12
62122;BME280;48108;47.532;19.084;2022-10-18T08:35:59;101732.81;;;15.57;67.63
62122;BME280;48108;47.532;19.084;2022-10-18T08:39:02;101720.69;;;15.76;67.23
62122;BME280;48108;47.532;19.084;2022-10-18T08:42:34;101715.97;;;16.01;66.40
62122;BME280;48108;47.532;19.084;2022-10-18T08:45:41;101716.38;;;16.13;65.51
62122;BME280;48108;47.532;19.084;2022-10-18T08:48:50;101710.94;;;16.13;65.50
62122;BME280;48108;47.532;19.084;2022-10-18T08:51:56;101709.75;;;16.15;67.02
62122;BME280;48108;47.532;19.084;2022-10-18T08:55:13;101709.09;;;16.51;65.33
62122;BME280;48108;47.532;19.084;2022-10-18T08:58:19;101703.31;;;16.69;64.59
62122;BME280;48108;47.532;19.084;2022-10-18T09:04:45;101690.13;;;16.81;60.26
62122;BME280;48108;47.532;19.084;2022-10-18T09:08:03;101688.34;;;17.03;58.46
62122;BME280;48108;47.532;19.084;2022-10-18T09:21:19;101673.59;;;17.63;52.86
62122;BME280;48108;47.532;19.084;2022-10-18T09:27:53;101665.22;;;17.79;50.83
62122;BME280;48108;47.532;19.084;2022-10-18T09:31:14;101667.75;;;18.02;52.33
62122;BME280;48108;47.532;19.084;2022-10-18T09:34:44;101660.59;;;18.01;49.59
62122;BME280;48108;47.532;19.084;2022-10-18T09:37:57;101660.81;;;18.00;48.70
62122;BME280;48108;47.532;19.084;2022-10-18T09:41:09;101652.41;;;18.01;49.20
62122;BME280;48108;47.532;19.084;2022-10-18T09:44:20;101653.13;;;18.10;49.14
62122;BME280;48108;47.532;19.084;2022-10-18T09:47:40;101649.28;;;18.26;50.88
62122;BME280;48108;47.532;19.084;2022-10-18T09:54:15;101631.25;;;18.59;48.96
62122;BME280;48108;47.532;19.084;2022-10-18T09:57:34;101627.25;;;18.55;48.14
62122;BME280;48108;47.532;19.084;2022-10-18T10:00:46;101626.37;;;18.76;46.69
62122;BME280;48108;47.532;19.084;2022-10-18T10:03:50;101626.78;;;18.80;47.44
62122;BME280;48108;47.532;19.084;2022-10-18T10:06:55;101621.84;;;18.97;46.15
62122;BME280;48108;47.532;19.084;2022-10-18T10:10:05;101610.34;;;19.01;45.85
62122;BME280;48108;47.532;19.084;2022-10-18T10:13:24;101605.31;;;19.05;47.29
62122;BME280;48108;47.532;19.084;2022-10-18T10:16:27;101600.13;;;19.23;45.24
62122;BME280;48108;47.532;19.084;2022-10-18T10:19:36;101597.22;;;19.32;45.93
62122;BME280;48108;47.532;19.084;2022-10-18T10:22:40;101596.97;;;19.33;45.08
62122;BME280;48108;47.532;19.084;2022-10-18T10:25:49;101584.62;;;19.51;44.36
62122;BME280;48108;47.532;19.084;2022-10-18T10:28:56;101581.25;;;19.35;43.31
62122;BME280;48108;47.532;19.084;2022-10-18T10:32:02;101576.66;;;19.49;42.93
62122;BME280;48108;47.532;19.084;2022-10-18T10:39:12;101573.03;;;19.29;44.67
62122;BME280;48108;47.532;19.084;2022-10-18T10:42:17;101569.56;;;19.68;41.67
62122;BME280;48108;47.532;19.084;2022-10-18T10:45:21;101561.16;;;19.76;42.13
62122;BME280;48108;47.532;19.084;2022-10-18T10:48:26;101548.53;;;19.88;41.00
62122;BME280;48108;47.532;19.084;2022-10-18T10:51:36;101547.88;;;20.06;41.43
62122;BME280;48108;47.532;19.084;2022-10-18T10:54:43;101548.75;;;20.13;39.31
62122;BME280;48108;47.532;19.084;2022-10-18T10:57:54;101545.34;;;20.31;39.68
62122;BME280;48108;47.532;19.084;2022-10-18T11:01:16;101538.53;;;20.74;38.28
62122;BME280;48108;47.532;19.084;2022-10-18T11:04:29;101538.69;;;20.79;38.08
62122;BME280;48108;47.532;19.084;2022-10-18T11:07:42;101535.66;;;21.32;36.33
62122;BME280;48108;47.532;19.084;2022-10-18T11:11:07;101525.44;;;21.78;35.19
62122;BME280;48108;47.532;19.084;2022-10-18T11:14:20;101520.25;;;21.94;37.09
62122;BME280;48108;47.532;19.084;2022-10-18T11:17:53;101516.50;;;22.32;34.95
62122;BME280;48108;47.532;19.084;2022-10-18T11:21:11;101508.34;;;22.93;34.53
62122;BME280;48108;47.532;19.084;2022-10-18T11:24:17;101508.47;;;23.58;33.99
62122;BME280;48108;47.532;19.084;2022-10-18T11:27:40;101494.41;;;24.02;32.22
62122;BME280;48108;47.532;19.084;2022-10-18T11:30:48;101497.09;;;24.60;30.77
62122;BME280;48108;47.532;19.084;2022-10-18T11:41:28;101476.00;;;26.30;29.81
62122;BME280;48108;47.532;19.084;2022-10-18T11:44:47;101469.59;;;26.68;28.66
62122;BME280;48108;47.532;19.084;2022-10-18T11:48:09;101471.13;;;27.72;26.35
62122;BME280;48108;47.532;19.084;2022-10-18T12:05:13;101434.63;;;31.66;21.48
62122;BME280;48108;47.532;19.084;2022-10-18T12:08:27;101424.59;;;32.37;22.05
62122;BME280;48108;47.532;19.084;2022-10-18T12:11:40;101424.31;;;34.35;20.41
62122;BME280;48108;47.532;19.084;2022-10-18T12:17:59;101407.97;;;34.79;19.62
62122;BME280;48108;47.532;19.084;2022-10-18T12:21:04;101412.66;;;34.05;19.10
62122;BME280;48108;47.532;19.084;2022-10-18T12:24:11;101390.16;;;35.51;17.68
62122;BME280;48108;47.532;19.084;2022-10-18T12:27:17;101399.09;;;35.53;17.87
62122;BME280;48108;47.532;19.084;2022-10-18T12:30:43;101391.81;;;35.83;17.11
62122;BME280;48108;47.532;19.084;2022-10-18T12:33:51;101395.03;;;35.36;17.27
62122;BME280;48108;47.532;19.084;2022-10-18T12:40:23;101376.56;;;32.26;19.93
62122;BME280;48108;47.532;19.084;2022-10-18T12:43:29;101373.56;;;30.38;23.04
62122;BME280;48108;47.532;19.084;2022-10-18T12:46:58;101365.28;;;27.92;25.89
62122;BME280;48108;47.532;19.084;2022-10-18T12:50:06;101357.56;;;25.84;27.93
62122;BME280;48108;47.532;19.084;2022-10-18T12:53:16;101365.28;;;24.24;30.63
62122;BME280;48108;47.532;19.084;2022-10-18T13:02:31;101348.53;;;22.30;33.85
62122;BME280;48108;47.532;19.084;2022-10-18T13:06:01;101345.06;;;21.86;34.25
62122;BME280;48108;47.532;19.084;2022-10-18T13:09:15;101346.72;;;21.69;34.94
62122;BME280;48108;47.532;19.084;2022-10-18T13:15:46;101336.75;;;21.31;36.71
62122;BME280;48108;47.532;19.084;2022-10-18T13:18:59;101333.62;;;21.27;36.12
62122;BME280;48108;47.532;19.084;2022-10-18T13:25:46;101332.63;;;20.97;35.55
62122;BME280;48108;47.532;19.084;2022-10-18T13:29:21;101331.13;;;20.76;36.56
62122;BME280;48108;47.532;19.084;2022-10-18T13:32:38;101322.84;;;20.57;36.08
62122;BME280;48108;47.532;19.084;2022-10-18T13:35:55;101324.97;;;20.49;36.27
62122;BME280;48108;47.532;19.084;2022-10-18T13:39:01;101325.91;;;20.36;35.23
62122;BME280;48108;47.532;19.084;2022-10-18T14:05:56;101310.00;;;19.75;37.80
62122;BME280;48108;47.532;19.084;2022-10-18T14:12:42;101306.22;;;19.56;38.77
62122;BME280;48108;47.532;19.084;2022-10-18T14:15:48;101300.78;;;19.49;38.90
62122;BME280;48108;47.532;19.084;2022-10-18T14:18:56;101301.87;;;19.35;39.74
62122;BME280;48108;47.532;19.084;2022-10-18T14:25:28;101292.66;;;19.22;38.35
62122;BME280;48108;47.532;19.084;2022-10-18T14:28:32;101295.16;;;19.31;38.30
62122;BME280;48108;47.532;19.084;2022-10-18T14:31:55;101287.41;;;19.28;39.16
62122;BME280;48108;47.532;19.084;2022-10-18T14:34:59;101291.16;;;19.26;39.53
62122;BME280;48108;47.532;19.084;2022-10-18T14:38:22;101288.06;;;19.16;39.98
62122;BME280;48108;47.532;19.084;2022-10-18T14:41:30;101280.50;;;19.05;40.31
62122;BME280;48108;47.532;19.084;2022-10-18T14:44:34;101277.56;;;18.93;40.58
62122;BME280;48108;47.532;19.084;2022-10-18T14:47:38;101271.91;;;18.88;40.82
62122;BME280;48108;47.532;19.084;2022-10-18T14:50:43;101267.06;;;18.77;41.07
62122;BME280;48108;47.532;19.084;2022-10-18T14:53:48;101266.22;;;18.83;41.07
62122;BME280;48108;47.532;19.084;2022-10-18T14:56:51;101262.25;;;18.86;40.09
62122;BME280;48108;47.532;19.084;2022-10-18T15:00:00;101254.69;;;18.94;40.27
62122;BME280;48108;47.532;19.084;2022-10-18T15:03:09;101253.63;;;19.02;40.16
62122;BME280;48108;47.532;19.084;2022-10-18T15:06:19;101244.84;;;18.93;40.17
62122;BME280;48108;47.532;19.084;2022-10-18T15:09:22;101247.37;;;18.75;40.98
62122;BME280;48108;47.532;19.084;2022-10-18T15:12:27;101245.84;;;18.59;42.10
62122;BME280;48108;47.532;19.084;2022-10-18T15:15:47;101247.13;;;18.50;42.59
62122;BME280;48108;47.532;19.084;2022-10-18T15:22:22;101243.25;;;18.04;45.14
62122;BME280;48108;47.532;19.084;2022-10-18T15:25:33;101244.03;;;17.78;45.81
62122;BME280;48108;47.532;19.084;2022-10-18T15:28:42;101230.31;;;17.58;46.24
62122;BME280;48108;47.532;19.084;2022-10-18T15:31:53;101228.75;;;17.42;48.19
62122;BME280;48108;47.532;19.084;2022-10-18T15:35:15;101233.31;;;17.29;46.54
62122;BME280;48108;47.532;19.084;2022-10-18T15:38:27;101233.87;;;17.17;49.25
62122;BME280;48108;47.532;19.084;2022-10-18T15:41:38;101231.47;;;17.01;49.49
62122;BME280;48108;47.532;19.084;2022-10-18T15:44:48;101230.75;;;16.86;50.68
62122;BME280;48108;47.532;19.084;2022-10-18T15:51:47;101227.97;;;16.58;53.00
62122;BME280;48108;47.532;19.084;2022-10-18T15:54:29;101226.78;;;16.39;54.40
